sensor_id;sensor_type;location;lat;lon;timestamp;pressure;altitude;pressure_sealevel;temperature;humidity
21824;BME280;11074;48.596;9.238;2022-08-01T00:00:35;98356.28;;;20.47;71.26
21824;BME280;11074;48.596;9.238;2022-08-01T00:03:01;98354.13;;;20.67;70.79
21824;BME280;11074;48.596;9.238;2022-08-01T00:05:27;98357.75;;;20.53;71.08
21824;BME280;11074;48.596;9.238;2022-08-01T00:07:53;98352.28;;;20.76;70.91
21824;BME280;11074;48.596;9.238;2022-08-01T00:10:19;98348.78;;;20.53;70.98
21824;BME280;11074;48.596;9.238;2022-08-01T00:12:45;98356.13;;;20.52;70.84
21824;BME280;11074;48.596;9.238;2022-08-01T00:15:15;98353.94;;;20.63;70.23
21824;BME280;11074;48.596;9.238;2022-08-01T00:17:41;98358.28;;;20.64;70.04
21824;BME280;11074;48.596;9.238;2022-08-01T00:20:12;98363.31;;;20.48;70.64
21824;BME280;11074;48.596;9.238;2022-08-01T00:22:38;98357.56;;;20.50;74.86
21824;BME280;11074;48.596;9.238;2022-08-01T00:25:05;98365.97;;;20.40;75.42
21824;BME280;11074;48.596;9.238;2022-08-01T00:27:32;98364.75;;;20.46;76.35
21824;BME280;11074;48.596;9.238;2022-08-01T00:29:58;98361.03;;;20.42;77.63
21824;BME280;11074;48.596;9.238;2022-08-01T00:32:24;98362.47;;;20.39;78.11
21824;BME280;11074;48.596;9.238;2022-08-01T00:34:50;98368.16;;;20.29;75.42
21824;BME280;11074;48.596;9.238;2022-08-01T00:37:16;98368.47;;;20.28;74.79
21824;BME280;11074;48.596;9.238;2022-08-01T00:39:42;98367.41;;;20.37;73.57
21824;BME280;11074;48.596;9.238;2022-08-01T00:42:12;98373.31;;;20.39;72.75
21824;BME280;11074;48.596;9.238;2022-08-01T00:44:39;98372.72;;;20.42;72.33
21824;BME280;11074;48.596;9.238;2022-08-01T00:47:06;98371.00;;;20.46;77.08
21824;BME280;11074;48.596;9.238;2022-08-01T00:49:32;98369.38;;;20.45;75.95
21824;BME280;11074;48.596;9.238;2022-08-01T00:51:58;98378.19;;;20.51;74.06
21824;BME280;11074;48.596;9.238;2022-08-01T00:54:26;98374.31;;;20.43;78.00
21824;BME280;11074;48.596;9.238;2022-08-01T00:56:53;98366.78;;;20.40;77.50
21824;BME280;11074;48.596;9.238;2022-08-01T00:59:22;98377.81;;;20.22;77.70
21824;BME280;11074;48.596;9.238;2022-08-01T01:01:49;98372.19;;;20.18;77.74
21824;BME280;11074;48.596;9.238;2022-08-01T01:04:16;98380.34;;;20.18;78.33
21824;BME280;11074;48.596;9.238;2022-08-01T01:10:02;98377.72;;;20.27;75.94
21824;BME280;11074;48.596;9.238;2022-08-01T01:12:58;98384.28;;;20.12;76.72
21824;BME280;11074;48.596;9.238;2022-08-01T01:15:33;98384.84;;;20.23;75.92
21824;BME280;11074;48.596;9.238;2022-08-01T01:18:13;98384.28;;;20.12;76.07
21824;BME280;11074;48.596;9.238;2022-08-01T01:20:51;98379.44;;;20.01;76.60
21824;BME280;11074;48.596;9.238;2022-08-01T01:23:39;98390.28;;;19.65;78.27
21824;BME280;11074;48.596;9.238;2022-08-01T01:29:21;98384.13;;;19.73;77.88
21824;BME280;11074;48.596;9.238;2022-08-01T01:32:14;98376.44;;;19.88;77.38
21824;BME280;11074;48.596;9.238;2022-08-01T01:34:45;98378.50;;;20.05;77.11
21824;BME280;11074;48.596;9.238;2022-08-01T01:37:19;98379.34;;;19.92;77.30
21824;BME280;11074;48.596;9.238;2022-08-01T01:39:50;98387.63;;;19.87;78.03
21824;BME280;11074;48.596;9.238;2022-08-01T01:42:18;98389.56;;;19.73;78.05
21824;BME280;11074;48.596;9.238;2022-08-01T01:44:49;98393.59;;;19.62;78.59
21824;BME280;11074;48.596;9.238;2022-08-01T01:47:17;98386.25;;;19.62;78.60
21824;BME280;11074;48.596;9.238;2022-08-01T01:49:47;98387.47;;;19.56;78.67
21824;BME280;11074;48.596;9.238;2022-08-01T01:52:16;98387.59;;;19.51;78.79
21824;BME280;11074;48.596;9.238;2022-08-01T01:54:48;98388.69;;;19.36;79.62
21824;BME280;11074;48.596;9.238;2022-08-01T01:57:16;98392.16;;;19.42;79.00
21824;BME280;11074;48.596;9.238;2022-08-01T01:59:45;98387.31;;;19.39;79.63
21824;BME280;11074;48.596;9.238;2022-08-01T02:02:13;98393.31;;;19.36;79.21
21824;BME280;11074;48.596;9.238;2022-08-01T02:04:44;98388.59;;;19.28;79.72
21824;BME280;11074;48.596;9.238;2022-08-01T02:07:14;98391.03;;;19.16;79.59
21824;BME280;11074;48.596;9.238;2022-08-01T02:09:43;98391.53;;;19.18;79.45
21824;BME280;11074;48.596;9.238;2022-08-01T02:12:12;98390.94;;;19.21;79.84
21824;BME280;11074;48.596;9.238;2022-08-01T02:14:42;98389.72;;;19.13;80.03
21824;BME280;11074;48.596;9.238;2022-08-01T02:17:16;98389.63;;;19.18;79.27
21824;BME280;11074;48.596;9.238;2022-08-01T02:19:42;98397.75;;;19.05;79.85
21824;BME280;11074;48.596;9.238;2022-08-01T02:22:14;98390.50;;;19.00;80.64
21824;BME280;11074;48.596;9.238;2022-08-01T02:25:03;98397.75;;;19.05;79.49
21824;BME280;11074;48.596;9.238;2022-08-01T02:27:42;98388.50;;;19.06;79.83
21824;BME280;11074;48.596;9.238;2022-08-01T02:30:13;98397.94;;;19.08;79.45
21824;BME280;11074;48.596;9.238;2022-08-01T02:32:58;98399.06;;;19.07;79.17
21824;BME280;11074;48.596;9.238;2022-08-01T02:35:30;98395.66;;;19.02;80.15
21824;BME280;11074;48.596;9.238;2022-08-01T02:38:00;98395.75;;;18.97;79.79
21824;BME280;11074;48.596;9.238;2022-08-01T02:40:28;98398.34;;;18.88;80.32
21824;BME280;11074;48.596;9.238;2022-08-01T02:42:56;98400.75;;;18.76;80.81
21824;BME280;11074;48.596;9.238;2022-08-01T02:45:26;98398.56;;;19.05;79.06
21824;BME280;11074;48.596;9.238;2022-08-01T02:47:58;98388.59;;;19.14;78.43
21824;BME280;11074;48.596;9.238;2022-08-01T02:50:28;98399.66;;;19.04;78.69
21824;BME280;11074;48.596;9.238;2022-08-01T02:52:56;98406.00;;;19.13;79.21
21824;BME280;11074;48.596;9.238;2022-08-01T02:55:22;98406.59;;;19.24;77.47
21824;BME280;11074;48.596;9.238;2022-08-01T02:57:50;98399.75;;;19.26;77.52
21824;BME280;11074;48.596;9.238;2022-08-01T03:00:19;98407.19;;;19.21;78.08
21824;BME280;11074;48.596;9.238;2022-08-01T03:02:47;98395.53;;;19.20;78.21
21824;BME280;11074;48.596;9.238;2022-08-01T03:05:17;98401.66;;;19.12;77.81
21824;BME280;11074;48.596;9.238;2022-08-01T03:07:43;98399.34;;;18.92;79.00
21824;BME280;11074;48.596;9.238;2022-08-01T03:10:10;98403.75;;;18.88;78.70
21824;BME280;11074;48.596;9.238;2022-08-01T03:12:38;98398.13;;;18.85;79.15
21824;BME280;11074;48.596;9.238;2022-08-01T03:15:06;98399.06;;;18.94;79.25
21824;BME280;11074;48.596;9.238;2022-08-01T03:17:34;98392.72;;;18.98;79.33
21824;BME280;11074;48.596;9.238;2022-08-01T03:20:03;98395.41;;;18.85;79.00
21824;BME280;11074;48.596;9.238;2022-08-01T03:22:32;98394.31;;;18.72;79.71
21824;BME280;11074;48.596;9.238;2022-08-01T03:25:01;98406.16;;;18.76;79.57
21824;BME280;11074;48.596;9.238;2022-08-01T03:27:28;98402.94;;;18.74;79.91
21824;BME280;11074;48.596;9.238;2022-08-01T03:29:57;98410.69;;;18.81;79.84
21824;BME280;11074;48.596;9.238;2022-08-01T03:32:24;98410.34;;;18.68;80.06
21824;BME280;11074;48.596;9.238;2022-08-01T03:34:52;98410.44;;;18.63;80.66
21824;BME280;11074;48.596;9.238;2022-08-01T03:37:29;98411.56;;;18.62;80.69
21824;BME280;11074;48.596;9.238;2022-08-01T03:40:13;98412.16;;;18.59;80.46
21824;BME280;11074;48.596;9.238;2022-08-01T03:42:53;98413.97;;;18.45;81.03
21824;BME280;11074;48.596;9.238;2022-08-01T03:45:25;98413.69;;;18.47;81.01
21824;BME280;11074;48.596;9.238;2022-08-01T03:48:04;98410.13;;;18.51;80.82
21824;BME280;11074;48.596;9.238;2022-08-01T03:50:34;98407.75;;;18.45;81.40
21824;BME280;11074;48.596;9.238;2022-08-01T03:53:03;98419.16;;;18.42;81.18
21824;BME280;11074;48.596;9.238;2022-08-01T03:55:32;98416.69;;;18.45;80.84
21824;BME280;11074;48.596;9.238;2022-08-01T03:58:00;98411.81;;;18.47;80.71
21824;BME280;11074;48.596;9.238;2022-08-01T04:00:27;98417.22;;;18.29;81.72
21824;BME280;11074;48.596;9.238;2022-08-01T04:02:54;98408.84;;;18.30;81.57
21824;BME280;11074;48.596;9.238;2022-08-01T04:05:20;98420.47;;;18.49;81.20
21824;BME280;11074;48.596;9.238;2022-08-01T04:07:48;98415.03;;;18.49;80.94
21824;BME280;11074;48.596;9.238;2022-08-01T04:10:24;98418.25;;;18.33;81.82
21824;BME280;11074;48.596;9.238;2022-08-01T04:12:50;98420.56;;;18.39;81.70
21824;BME280;11074;48.596;9.238;2022-08-01T04:15:16;98423.69;;;18.33;81.84
21824;BME280;11074;48.596;9.238;2022-08-01T04:17:42;98418.84;;;18.48;81.67
21824;BME280;11074;48.596;9.238;2022-08-01T04:20:09;98441.59;;;18.29;81.59
21824;BME280;11074;48.596;9.238;2022-08-01T04:22:34;98426.63;;;18.17;82.34
21824;BME280;11074;48.596;9.238;2022-08-01T04:25:11;98435.84;;;18.16;82.45
21824;BME280;11074;48.596;9.238;2022-08-01T04:27:42;98439.78;;;18.24;82.45
21824;BME280;11074;48.596;9.238;2022-08-01T04:30:11;98443.28;;;18.25;82.02
21824;BME280;11074;48.596;9.238;2022-08-01T04:32:40;98443.13;;;18.35;81.06
21824;BME280;11074;48.596;9.238;2022-08-01T04:35:12;98441.50;;;18.34;81.67
21824;BME280;11074;48.596;9.238;2022-08-01T04:37:44;98453.69;;;18.36;81.05
21824;BME280;11074;48.596;9.238;2022-08-01T04:40:12;98445.34;;;18.33;81.46
21824;BME280;11074;48.596;9.238;2022-08-01T04:42:38;98453.00;;;18.26;82.04
21824;BME280;11074;48.596;9.238;2022-08-01T04:45:05;98456.00;;;18.24;81.48
21824;BME280;11074;48.596;9.238;2022-08-01T04:47:36;98448.41;;;18.26;81.56
21824;BME280;11074;48.596;9.238;2022-08-01T04:50:09;98452.06;;;18.35;81.10
21824;BME280;11074;48.596;9.238;2022-08-01T04:52:37;98453.75;;;18.12;83.04
21824;BME280;11074;48.596;9.238;2022-08-01T04:55:05;98460.44;;;17.83;84.48
21824;BME280;11074;48.596;9.238;2022-08-01T04:57:39;98455.13;;;17.91;84.51
21824;BME280;11074;48.596;9.238;2022-08-01T05:00:07;98448.22;;;17.85;84.38
21824;BME280;11074;48.596;9.238;2022-08-01T05:02:33;98462.97;;;17.74;84.75
21824;BME280;11074;48.596;9.238;2022-08-01T05:04:59;98455.44;;;17.71;84.76
21824;BME280;11074;48.596;9.238;2022-08-01T05:07:25;98458.94;;;17.48;86.18
21824;BME280;11074;48.596;9.238;2022-08-01T05:09:50;98451.31;;;17.55;85.95
21824;BME280;11074;48.596;9.238;2022-08-01T05:12:17;98445.63;;;17.51;86.16
21824;BME280;11074;48.596;9.238;2022-08-01T05:14:43;98444.69;;;17.66;85.72
21824;BME280;11074;48.596;9.238;2022-08-01T05:17:09;98449.06;;;17.62;86.09
21824;BME280;11074;48.596;9.238;2022-08-01T05:19:38;98436.75;;;17.93;84.16
21824;BME280;11074;48.596;9.238;2022-08-01T05:22:08;98444.03;;;18.30;82.88
21824;BME280;11074;48.596;9.238;2022-08-01T05:24:36;98446.34;;;18.37;81.83
21824;BME280;11074;48.596;9.238;2022-08-01T05:27:03;98446.13;;;18.52;81.47
21824;BME280;11074;48.596;9.238;2022-08-01T05:29:29;98440.63;;;18.57;81.70
21824;BME280;11074;48.596;9.238;2022-08-01T05:31:55;98442.16;;;18.76;80.03
21824;BME280;11074;48.596;9.238;2022-08-01T05:34:22;98440.84;;;18.74;80.65
21824;BME280;11074;48.596;9.238;2022-08-01T05:36:48;98437.28;;;18.79;80.39
21824;BME280;11074;48.596;9.238;2022-08-01T05:39:14;98433.81;;;18.59;80.65
21824;BME280;11074;48.596;9.238;2022-08-01T05:41:41;98431.81;;;18.65;80.53
21824;BME280;11074;48.596;9.238;2022-08-01T05:44:07;98433.41;;;18.66;79.82
21824;BME280;11074;48.596;9.238;2022-08-01T05:46:34;98431.84;;;18.79;79.57
21824;BME280;11074;48.596;9.238;2022-08-01T05:49:02;98429.75;;;18.89;79.63
21824;BME280;11074;48.596;9.238;2022-08-01T05:51:28;98436.78;;;19.04;78.35
21824;BME280;11074;48.596;9.238;2022-08-01T05:53:54;98429.88;;;19.11;78.11
21824;BME280;11074;48.596;9.238;2022-08-01T05:56:21;98436.78;;;18.90;79.32
21824;BME280;11074;48.596;9.238;2022-08-01T05:58:48;98431.00;;;19.24;77.52
21824;BME280;11074;48.596;9.238;2022-08-01T06:01:15;98430.28;;;19.32;77.39
21824;BME280;11074;48.596;9.238;2022-08-01T06:03:41;98428.97;;;19.43;77.42
21824;BME280;11074;48.596;9.238;2022-08-01T06:06:07;98426.97;;;19.49;76.82
21824;BME280;11074;48.596;9.238;2022-08-01T06:08:33;98425.06;;;19.63;76.22
21824;BME280;11074;48.596;9.238;2022-08-01T06:10:59;98424.63;;;19.69;75.84
21824;BME280;11074;48.596;9.238;2022-08-01T06:13:25;98433.84;;;19.82;75.95
21824;BME280;11074;48.596;9.238;2022-08-01T06:15:51;98441.16;;;19.95;74.80
21824;BME280;11074;48.596;9.238;2022-08-01T06:18:17;98441.84;;;20.01;74.00
21824;BME280;11074;48.596;9.238;2022-08-01T06:20:43;98438.44;;;19.95;74.30
21824;BME280;11074;48.596;9.238;2022-08-01T06:23:09;98438.13;;;19.96;75.03
21824;BME280;11074;48.596;9.238;2022-08-01T06:25:35;98436.19;;;20.11;73.82
21824;BME280;11074;48.596;9.238;2022-08-01T06:28:01;98445.94;;;20.12;73.91
21824;BME280;11074;48.596;9.238;2022-08-01T06:30:27;98435.13;;;20.20;73.44
21824;BME280;11074;48.596;9.238;2022-08-01T06:32:53;98441.09;;;20.22;73.95
21824;BME280;11074;48.596;9.238;2022-08-01T06:35:21;98444.00;;;20.26;73.65
21824;BME280;11074;48.596;9.238;2022-08-01T06:37:47;98436.66;;;20.26;73.35
21824;BME280;11074;48.596;9.238;2022-08-01T06:40:14;98445.59;;;20.27;73.96
21824;BME280;11074;48.596;9.238;2022-08-01T06:42:40;98439.38;;;20.26;73.77
21824;BME280;11074;48.596;9.238;2022-08-01T06:45:09;98441.09;;;20.44;72.54
21824;BME280;11074;48.596;9.238;2022-08-01T06:47:36;98435.66;;;20.44;72.31
21824;BME280;11074;48.596;9.238;2022-08-01T06:50:04;98440.19;;;20.49;72.77
21824;BME280;11074;48.596;9.238;2022-08-01T06:52:30;98433.00;;;20.53;72.21
21824;BME280;11074;48.596;9.238;2022-08-01T06:54:55;98430.97;;;20.59;71.93
21824;BME280;11074;48.596;9.238;2022-08-01T06:57:21;98444.97;;;20.52;72.80
21824;BME280;11074;48.596;9.238;2022-08-01T06:59:47;98438.03;;;20.60;72.41
21824;BME280;11074;48.596;9.238;2022-08-01T07:02:13;98435.97;;;20.65;72.30
21824;BME280;11074;48.596;9.238;2022-08-01T07:04:39;98442.19;;;20.66;72.46
21824;BME280;11074;48.596;9.238;2022-08-01T07:07:04;98428.19;;;20.72;72.51
21824;BME280;11074;48.596;9.238;2022-08-01T07:09:30;98424.03;;;20.75;72.07
21824;BME280;11074;48.596;9.238;2022-08-01T07:11:56;98427.72;;;20.79;72.14
21824;BME280;11074;48.596;9.238;2022-08-01T07:14:23;98432.25;;;20.83;72.41
21824;BME280;11074;48.596;9.238;2022-08-01T07:16:50;98427.28;;;20.85;72.36
21824;BME280;11074;48.596;9.238;2022-08-01T07:19:16;98426.03;;;20.91;72.53
21824;BME280;11074;48.596;9.238;2022-08-01T07:21:43;98428.00;;;20.99;72.56
21824;BME280;11074;48.596;9.238;2022-08-01T07:24:12;98432.44;;;21.18;71.99
21824;BME280;11074;48.596;9.238;2022-08-01T07:26:44;98429.22;;;21.24;70.92
21824;BME280;11074;48.596;9.238;2022-08-01T07:29:10;98434.41;;;21.34;70.84
21824;BME280;11074;48.596;9.238;2022-08-01T07:31:36;98427.97;;;21.30;70.81
21824;BME280;11074;48.596;9.238;2022-08-01T07:34:01;98434.09;;;21.36;70.63
21824;BME280;11074;48.596;9.238;2022-08-01T07:36:27;98431.41;;;21.44;71.67
21824;BME280;11074;48.596;9.238;2022-08-01T07:38:53;98428.03;;;21.47;70.16
21824;BME280;11074;48.596;9.238;2022-08-01T07:41:19;98423.25;;;21.53;71.75
21824;BME280;11074;48.596;9.238;2022-08-01T07:43:44;98421.81;;;21.64;70.42
21824;BME280;11074;48.596;9.238;2022-08-01T07:46:10;98422.00;;;21.67;70.44
21824;BME280;11074;48.596;9.238;2022-08-01T07:48:35;98415.75;;;21.75;70.17
21824;BME280;11074;48.596;9.238;2022-08-01T07:51:01;98411.91;;;21.85;70.47
21824;BME280;11074;48.596;9.238;2022-08-01T07:53:27;98415.81;;;21.93;69.68
21824;BME280;11074;48.596;9.238;2022-08-01T07:55:52;98411.97;;;21.94;70.03
21824;BME280;11074;48.596;9.238;2022-08-01T07:58:18;98415.50;;;22.03;70.50
21824;BME280;11074;48.596;9.238;2022-08-01T08:00:44;98407.16;;;22.08;69.27
21824;BME280;11074;48.596;9.238;2022-08-01T08:03:10;98406.03;;;22.17;69.67
21824;BME280;11074;48.596;9.238;2022-08-01T08:05:36;98402.97;;;22.27;68.62
21824;BME280;11074;48.596;9.238;2022-08-01T08:08:06;98409.41;;;22.31;68.35
21824;BME280;11074;48.596;9.238;2022-08-01T08:10:33;98408.41;;;22.36;68.22
21824;BME280;11074;48.596;9.238;2022-08-01T08:12:59;98408.25;;;22.41;68.25
21824;BME280;11074;48.596;9.238;2022-08-01T08:15:24;98400.41;;;22.48;67.28
21824;BME280;11074;48.596;9.238;2022-08-01T08:17:50;98395.09;;;22.52;68.19
21824;BME280;11074;48.596;9.238;2022-08-01T08:20:16;98397.00;;;22.60;66.95
21824;BME280;11074;48.596;9.238;2022-08-01T08:22:41;98392.19;;;22.65;66.87
21824;BME280;11074;48.596;9.238;2022-08-01T08:25:08;98404.38;;;22.68;67.32
21824;BME280;11074;48.596;9.238;2022-08-01T08:27:35;98395.25;;;22.72;66.63
21824;BME280;11074;48.596;9.238;2022-08-01T08:30:03;98404.81;;;22.78;67.46
21824;BME280;11074;48.596;9.238;2022-08-01T08:32:31;98393.75;;;22.83;67.25
21824;BME280;11074;48.596;9.238;2022-08-01T08:34:56;98392.78;;;22.88;66.74
21824;BME280;11074;48.596;9.238;2022-08-01T08:37:22;98397.06;;;22.98;66.17
21824;BME280;11074;48.596;9.238;2022-08-01T08:39:48;98386.31;;;23.01;65.57
21824;BME280;11074;48.596;9.238;2022-08-01T08:42:13;98385.31;;;23.06;65.74
21824;BME280;11074;48.596;9.238;2022-08-01T08:44:43;98386.56;;;23.17;65.87
21824;BME280;11074;48.596;9.238;2022-08-01T08:47:12;98385.91;;;23.20;65.50
21824;BME280;11074;48.596;9.238;2022-08-01T08:49:42;98381.72;;;23.22;65.80
21824;BME280;11074;48.596;9.238;2022-08-01T08:52:08;98383.75;;;23.34;65.79
21824;BME280;11074;48.596;9.238;2022-08-01T08:54:37;98378.59;;;23.41;65.27
21824;BME280;11074;48.596;9.238;2022-08-01T08:57:04;98377.75;;;23.49;65.46
21824;BME280;11074;48.596;9.238;2022-08-01T08:59:31;98377.81;;;23.61;63.74
21824;BME280;11074;48.596;9.238;2022-08-01T09:01:57;98379.69;;;23.69;64.17
21824;BME280;11074;48.596;9.238;2022-08-01T09:04:25;98378.09;;;23.68;64.31
21824;BME280;11074;48.596;9.238;2022-08-01T09:06:53;98381.91;;;23.76;63.98
21824;BME280;11074;48.596;9.238;2022-08-01T09:09:19;98377.56;;;23.75;63.60
21824;BME280;11074;48.596;9.238;2022-08-01T09:11:44;98376.91;;;23.78;64.13
21824;BME280;11074;48.596;9.238;2022-08-01T09:14:14;98381.75;;;23.72;63.61
21824;BME280;11074;48.596;9.238;2022-08-01T09:16:44;98371.88;;;23.80;63.53
21824;BME280;11074;48.596;9.238;2022-08-01T09:19:13;98380.63;;;23.94;63.38
21824;BME280;11074;48.596;9.238;2022-08-01T09:21:55;98374.81;;;23.95;63.93
21824;BME280;11074;48.596;9.238;2022-08-01T09:24:22;98384.56;;;24.05;62.66
21824;BME280;11074;48.596;9.238;2022-08-01T09:26:47;98376.81;;;24.07;59.91
21824;BME280;11074;48.596;9.238;2022-08-01T09:29:33;98376.13;;;24.19;61.06
21824;BME280;11074;48.596;9.238;2022-08-01T09:32:05;98376.81;;;24.28;60.75
21824;BME280;11074;48.596;9.238;2022-08-01T09:34:31;98372.75;;;24.34;60.36
21824;BME280;11074;48.596;9.238;2022-08-01T09:37:01;98367.81;;;24.27;59.82
21824;BME280;11074;48.596;9.238;2022-08-01T09:39:34;98381.41;;;24.36;59.69
21824;BME280;11074;48.596;9.238;2022-08-01T09:42:23;98367.19;;;24.42;59.42
21824;BME280;11074;48.596;9.238;2022-08-01T09:44:50;98372.00;;;24.57;59.33
21824;BME280;11074;48.596;9.238;2022-08-01T09:47:18;98370.56;;;24.72;60.23
21824;BME280;11074;48.596;9.238;2022-08-01T09:49:53;98362.09;;;24.65;60.17
21824;BME280;11074;48.596;9.238;2022-08-01T09:52:25;98362.91;;;24.65;60.74
21824;BME280;11074;48.596;9.238;2022-08-01T09:55:01;98360.84;;;24.62;60.54
21824;BME280;11074;48.596;9.238;2022-08-01T09:57:28;98359.06;;;24.66;60.01
21824;BME280;11074;48.596;9.238;2022-08-01T09:59:57;98363.03;;;24.69;60.52
21824;BME280;11074;48.596;9.238;2022-08-01T10:02:32;98352.09;;;24.69;60.67
21824;BME280;11074;48.596;9.238;2022-08-01T10:04:58;98358.25;;;24.66;59.98
21824;BME280;11074;48.596;9.238;2022-08-01T10:07:25;98348.91;;;24.67;60.51
21824;BME280;11074;48.596;9.238;2022-08-01T10:09:51;98349.59;;;24.64;60.20
21824;BME280;11074;48.596;9.238;2022-08-01T10:12:20;98347.75;;;24.68;60.21
21824;BME280;11074;48.596;9.238;2022-08-01T10:14:49;98339.09;;;24.66;61.08
21824;BME280;11074;48.596;9.238;2022-08-01T10:17:18;98338.22;;;24.74;62.20
21824;BME280;11074;48.596;9.238;2022-08-01T10:19:45;98342.81;;;24.94;60.10
21824;BME280;11074;48.596;9.238;2022-08-01T10:22:13;98338.59;;;25.09;58.57
21824;BME280;11074;48.596;9.238;2022-08-01T10:24:47;98334.25;;;25.08;57.67
21824;BME280;11074;48.596;9.238;2022-08-01T10:27:16;98333.94;;;25.09;58.30
21824;BME280;11074;48.596;9.238;2022-08-01T10:29:55;98335.97;;;25.12;59.32
21824;BME280;11074;48.596;9.238;2022-08-01T10:32:23;98332.19;;;25.05;58.59
21824;BME280;11074;48.596;9.238;2022-08-01T10:34:52;98337.09;;;24.99;59.38
21824;BME280;11074;48.596;9.238;2022-08-01T10:37:20;98330.50;;;25.00;57.44
21824;BME280;11074;48.596;9.238;2022-08-01T10:39:46;98333.81;;;25.06;58.33
21824;BME280;11074;48.596;9.238;2022-08-01T10:42:12;98324.25;;;25.12;58.12
21824;BME280;11074;48.596;9.238;2022-08-01T10:44:39;98324.81;;;25.17;59.40
21824;BME280;11074;48.596;9.238;2022-08-01T10:47:17;98320.00;;;25.26;58.81
21824;BME280;11074;48.596;9.238;2022-08-01T10:49:48;98322.00;;;25.42;56.99
21824;BME280;11074;48.596;9.238;2022-08-01T10:52:17;98319.38;;;25.45;57.42
21824;BME280;11074;48.596;9.238;2022-08-01T10:54:44;98316.22;;;25.43;58.20
21824;BME280;11074;48.596;9.238;2022-08-01T10:57:10;98321.91;;;25.38;58.52
21824;BME280;11074;48.596;9.238;2022-08-01T10:59:49;98311.97;;;25.33;57.81
21824;BME280;11074;48.596;9.238;2022-08-01T11:02:31;98315.88;;;25.20;57.13
21824;BME280;11074;48.596;9.238;2022-08-01T11:05:09;98322.59;;;25.23;57.61
21824;BME280;11074;48.596;9.238;2022-08-01T11:07:48;98315.00;;;25.16;57.34
21824;BME280;11074;48.596;9.238;2022-08-01T11:10:41;98318.16;;;25.18;58.09
21824;BME280;11074;48.596;9.238;2022-08-01T11:13:10;98314.88;;;25.13;60.03
21824;BME280;11074;48.596;9.238;2022-08-01T11:15:40;98318.41;;;25.13;60.33
21824;BME280;11074;48.596;9.238;2022-08-01T11:21:00;98321.94;;;25.14;60.41
21824;BME280;11074;48.596;9.238;2022-08-01T11:23:28;98318.28;;;25.10;60.90
21824;BME280;11074;48.596;9.238;2022-08-01T11:28:24;98317.25;;;25.02;61.85
21824;BME280;11074;48.596;9.238;2022-08-01T11:30:53;98313.84;;;25.05;62.85
21824;BME280;11074;48.596;9.238;2022-08-01T11:41:15;98313.63;;;25.10;62.43
21824;BME280;11074;48.596;9.238;2022-08-01T11:44:12;98308.38;;;25.17;61.62
21824;BME280;11074;48.596;9.238;2022-08-01T11:47:03;98315.19;;;25.23;62.45
21824;BME280;11074;48.596;9.238;2022-08-01T11:52:13;98302.75;;;25.38;60.98
21824;BME280;11074;48.596;9.238;2022-08-01T11:55:09;98303.75;;;25.46;62.77
21824;BME280;11074;48.596;9.238;2022-08-01T11:57:35;98300.78;;;25.63;61.99
21824;BME280;11074;48.596;9.238;2022-08-01T12:00:15;98296.56;;;25.93;60.92
21824;BME280;11074;48.596;9.238;2022-08-01T12:02:44;98289.59;;;26.23;59.59
21824;BME280;11074;48.596;9.238;2022-08-01T12:05:13;98291.22;;;26.56;56.19
21824;BME280;11074;48.596;9.238;2022-08-01T12:07:41;98287.31;;;26.72;56.64
21824;BME280;11074;48.596;9.238;2022-08-01T12:10:13;98283.34;;;26.85;55.22
21824;BME280;11074;48.596;9.238;2022-08-01T12:13:05;98279.72;;;26.66;56.21
21824;BME280;11074;48.596;9.238;2022-08-01T12:15:34;98278.66;;;26.55;56.17
21824;BME280;11074;48.596;9.238;2022-08-01T12:18:04;98275.81;;;26.67;56.23
21824;BME280;11074;48.596;9.238;2022-08-01T12:20:36;98274.41;;;26.73;55.21
21824;BME280;11074;48.596;9.238;2022-08-01T12:23:08;98275.31;;;26.61;55.62
21824;BME280;11074;48.596;9.238;2022-08-01T12:25:35;98275.75;;;26.47;56.31
21824;BME280;11074;48.596;9.238;2022-08-01T12:28:05;98266.59;;;26.43;56.73
21824;BME280;11074;48.596;9.238;2022-08-01T12:30:32;98278.00;;;26.30;57.42
21824;BME280;11074;48.596;9.238;2022-08-01T12:33:04;98275.19;;;26.26;55.75
21824;BME280;11074;48.596;9.238;2022-08-01T12:35:30;98279.31;;;26.20;55.97
21824;BME280;11074;48.596;9.238;2022-08-01T12:38:07;98272.09;;;26.28;55.45
21824;BME280;11074;48.596;9.238;2022-08-01T12:40:35;98269.56;;;26.51;55.41
21824;BME280;11074;48.596;9.238;2022-08-01T12:43:06;98263.97;;;26.78;54.17
21824;BME280;11074;48.596;9.238;2022-08-01T12:45:42;98260.66;;;27.04;53.55
21824;BME280;11074;48.596;9.238;2022-08-01T12:48:10;98249.16;;;27.14;56.23
21824;BME280;11074;48.596;9.238;2022-08-01T12:50:46;98256.53;;;27.29;53.24
21824;BME280;11074;48.596;9.238;2022-08-01T12:53:13;98251.28;;;27.40;51.93
21824;BME280;11074;48.596;9.238;2022-08-01T12:55:53;98244.09;;;27.51;52.99
21824;BME280;11074;48.596;9.238;2022-08-01T12:58:20;98245.38;;;27.57;52.59
21824;BME280;11074;48.596;9.238;2022-08-01T13:00:50;98241.78;;;27.37;52.47
21824;BME280;11074;48.596;9.238;2022-08-01T13:03:19;98242.66;;;27.22;53.60
21824;BME280;11074;48.596;9.238;2022-08-01T13:05:54;98238.03;;;27.26;52.77
21824;BME280;11074;48.596;9.238;2022-08-01T13:08:33;98241.00;;;27.37;53.27
21824;BME280;11074;48.596;9.238;2022-08-01T13:11:09;98240.16;;;27.52;52.46
21824;BME280;11074;48.596;9.238;2022-08-01T13:13:44;98241.34;;;27.70;51.99
21824;BME280;11074;48.596;9.238;2022-08-01T13:16:13;98243.63;;;27.68;52.92
21824;BME280;11074;48.596;9.238;2022-08-01T13:18:39;98244.63;;;27.79;51.79
21824;BME280;11074;48.596;9.238;2022-08-01T13:21:22;98242.47;;;27.88;51.99
21824;BME280;11074;48.596;9.238;2022-08-01T13:24:10;98244.13;;;27.93;52.16
21824;BME280;11074;48.596;9.238;2022-08-01T13:29:28;98233.34;;;28.03;51.78
21824;BME280;11074;48.596;9.238;2022-08-01T13:31:54;98229.16;;;28.09;52.22
21824;BME280;11074;48.596;9.238;2022-08-01T13:34:33;98231.97;;;28.13;50.60
21824;BME280;11074;48.596;9.238;2022-08-01T13:37:00;98227.31;;;27.98;51.54